sensor_id;sensor_type;location;lat;lon;timestamp;P1;durP1;ratioP1;P2;durP2;ratioP2
66478;SDS011;53294;47.912;13.526;2024-03-08T00:02:15;4.82;;;1.60;;
66478;SDS011;53294;47.912;13.526;2024-03-08T00:04:41;1.85;;;1.00;;
66478;SDS011;53294;47.912;13.526;2024-03-08T00:07:08;2.03;;;1.38;;
66478;SDS011;53294;47.912;13.526;2024-03-08T00:09:35;3.35;;;1.67;;
66478;SDS011;53294;47.912;13.526;2024-03-08T00:12:02;2.78;;;1.30;;
66478;SDS011;53294;47.912;13.526;2024-03-08T00:14:29;2.58;;;1.50;;
66478;SDS011;53294;47.912;13.526;2024-03-08T00:16:56;4.07;;;1.60;;
66478;SDS011;53294;47.912;13.526;2024-03-08T00:19:23;5.70;;;2.22;;
66478;SDS011;53294;47.912;13.526;2024-03-08T00:21:49;1.88;;;1.40;;
66478;SDS011;53294;47.912;13.526;2024-03-08T00:24:16;1.30;;;0.85;;
66478;SDS011;53294;47.912;13.526;2024-03-08T00:26:43;2.25;;;0.98;;
66478;SDS011;53294;47.912;13.526;2024-03-08T00:29:10;2.03;;;1.30;;
66478;SDS011;53294;47.912;13.526;2024-03-08T00:31:36;4.18;;;1.45;;
66478;SDS011;53294;47.912;13.526;2024-03-08T00:34:03;5.65;;;1.48;;
66478;SDS011;53294;47.912;13.526;2024-03-08T00:36:30;2.30;;;1.67;;
66478;SDS011;53294;47.912;13.526;2024-03-08T00:38:56;5.63;;;1.33;;
66478;SDS011;53294;47.912;13.526;2024-03-08T00:41:23;0.85;;;0.68;;
66478;SDS011;53294;47.912;13.526;2024-03-08T00:43:52;3.13;;;1.85;;
66478;SDS011;53294;47.912;13.526;2024-03-08T00:46:19;3.15;;;1.40;;
66478;SDS011;53294;47.912;13.526;2024-03-08T00:48:46;1.73;;;1.58;;
66478;SDS011;53294;47.912;13.526;2024-03-08T00:51:13;1.83;;;1.60;;
66478;SDS011;53294;47.912;13.526;2024-03-08T00:53:41;5.00;;;1.77;;
66478;SDS011;53294;47.912;13.526;2024-03-08T00:56:09;6.80;;;1.98;;
66478;SDS011;53294;47.912;13.526;2024-03-08T00:58:39;1.48;;;1.23;;
66478;SDS011;53294;47.912;13.526;2024-03-08T01:01:06;2.13;;;1.30;;
66478;SDS011;53294;47.912;13.526;2024-03-08T01:03:33;8.48;;;1.92;;
66478;SDS011;53294;47.912;13.526;2024-03-08T01:06:00;5.20;;;1.63;;
66478;SDS011;53294;47.912;13.526;2024-03-08T01:08:27;4.43;;;1.00;;
66478;SDS011;53294;47.912;13.526;2024-03-08T01:10:54;5.32;;;1.48;;
66478;SDS011;53294;47.912;13.526;2024-03-08T01:13:21;1.40;;;0.70;;
66478;SDS011;53294;47.912;13.526;2024-03-08T01:15:48;4.35;;;1.23;;
66478;SDS011;53294;47.912;13.526;2024-03-08T01:18:14;3.88;;;2.03;;
66478;SDS011;53294;47.912;13.526;2024-03-08T01:20:41;5.43;;;2.65;;
66478;SDS011;53294;47.912;13.526;2024-03-08T01:23:08;2.75;;;1.75;;
66478;SDS011;53294;47.912;13.526;2024-03-08T01:25:35;3.05;;;2.13;;
66478;SDS011;53294;47.912;13.526;2024-03-08T01:28:02;2.22;;;1.45;;
66478;SDS011;53294;47.912;13.526;2024-03-08T01:30:28;1.67;;;1.58;;
66478;SDS011;53294;47.912;13.526;2024-03-08T01:32:55;6.68;;;1.60;;
66478;SDS011;53294;47.912;13.526;2024-03-08T01:35:22;3.53;;;1.92;;
66478;SDS011;53294;47.912;13.526;2024-03-08T01:37:49;2.03;;;1.55;;
66478;SDS011;53294;47.912;13.526;2024-03-08T01:40:16;2.75;;;1.65;;
66478;SDS011;53294;47.912;13.526;2024-03-08T01:42:43;2.33;;;1.35;;
66478;SDS011;53294;47.912;13.526;2024-03-08T01:45:11;1.63;;;1.25;;
66478;SDS011;53294;47.912;13.526;2024-03-08T01:47:38;8.80;;;0.68;;
66478;SDS011;53294;47.912;13.526;2024-03-08T01:50:05;2.80;;;1.73;;
66478;SDS011;53294;47.912;13.526;2024-03-08T01:52:33;5.30;;;1.88;;
66478;SDS011;53294;47.912;13.526;2024-03-08T01:55:00;5.65;;;2.05;;
66478;SDS011;53294;47.912;13.526;2024-03-08T01:57:29;7.15;;;1.58;;
66478;SDS011;53294;47.912;13.526;2024-03-08T01:59:57;9.63;;;2.47;;
66478;SDS011;53294;47.912;13.526;2024-03-08T02:02:24;6.90;;;2.60;;
66478;SDS011;53294;47.912;13.526;2024-03-08T02:04:51;8.13;;;2.90;;
66478;SDS011;53294;47.912;13.526;2024-03-08T02:07:19;3.95;;;2.33;;
66478;SDS011;53294;47.912;13.526;2024-03-08T02:09:46;4.38;;;2.47;;
66478;SDS011;53294;47.912;13.526;2024-03-08T02:12:13;4.15;;;1.20;;
66478;SDS011;53294;47.912;13.526;2024-03-08T02:14:40;4.68;;;1.55;;
66478;SDS011;53294;47.912;13.526;2024-03-08T02:17:07;4.20;;;2.55;;
66478;SDS011;53294;47.912;13.526;2024-03-08T02:19:34;3.80;;;2.17;;
66478;SDS011;53294;47.912;13.526;2024-03-08T02:22:02;3.33;;;2.00;;
66478;SDS011;53294;47.912;13.526;2024-03-08T02:24:31;7.03;;;2.55;;
66478;SDS011;53294;47.912;13.526;2024-03-08T02:26:58;6.57;;;1.98;;
66478;SDS011;53294;47.912;13.526;2024-03-08T02:29:25;5.97;;;2.35;;
66478;SDS011;53294;47.912;13.526;2024-03-08T02:31:52;3.42;;;1.80;;
66478;SDS011;53294;47.912;13.526;2024-03-08T02:34:19;6.72;;;2.70;;
66478;SDS011;53294;47.912;13.526;2024-03-08T02:36:46;5.68;;;2.10;;
66478;SDS011;53294;47.912;13.526;2024-03-08T02:39:13;1.45;;;1.27;;
66478;SDS011;53294;47.912;13.526;2024-03-08T02:41:40;7.60;;;3.03;;
66478;SDS011;53294;47.912;13.526;2024-03-08T02:44:07;5.07;;;1.98;;
66478;SDS011;53294;47.912;13.526;2024-03-08T02:46:33;5.43;;;2.25;;
66478;SDS011;53294;47.912;13.526;2024-03-08T02:49:02;4.28;;;2.47;;
66478;SDS011;53294;47.912;13.526;2024-03-08T02:51:29;6.88;;;2.60;;
66478;SDS011;53294;47.912;13.526;2024-03-08T02:53:57;3.92;;;3.55;;
66478;SDS011;53294;47.912;13.526;2024-03-08T02:56:24;3.55;;;1.50;;
66478;SDS011;53294;47.912;13.526;2024-03-08T02:58:50;3.13;;;1.83;;
66478;SDS011;53294;47.912;13.526;2024-03-08T03:01:17;5.15;;;2.30;;
66478;SDS011;53294;47.912;13.526;2024-03-08T03:03:46;4.82;;;1.58;;
66478;SDS011;53294;47.912;13.526;2024-03-08T03:06:13;1.95;;;1.67;;
66478;SDS011;53294;47.912;13.526;2024-03-08T03:08:40;3.17;;;1.75;;
66478;SDS011;53294;47.912;13.526;2024-03-08T03:11:09;2.38;;;1.27;;
66478;SDS011;53294;47.912;13.526;2024-03-08T03:13:35;2.22;;;1.08;;
66478;SDS011;53294;47.912;13.526;2024-03-08T03:16:02;2.33;;;1.40;;
66478;SDS011;53294;47.912;13.526;2024-03-08T03:18:29;2.60;;;1.33;;
66478;SDS011;53294;47.912;13.526;2024-03-08T03:20:56;1.27;;;0.70;;
66478;SDS011;53294;47.912;13.526;2024-03-08T03:23:23;2.08;;;0.65;;
66478;SDS011;53294;47.912;13.526;2024-03-08T03:25:52;0.90;;;0.43;;
66478;SDS011;53294;47.912;13.526;2024-03-08T03:28:18;2.25;;;1.90;;
66478;SDS011;53294;47.912;13.526;2024-03-08T03:30:48;6.80;;;2.17;;
66478;SDS011;53294;47.912;13.526;2024-03-08T03:33:14;3.83;;;1.90;;
66478;SDS011;53294;47.912;13.526;2024-03-08T03:35:43;1.60;;;1.13;;
66478;SDS011;53294;47.912;13.526;2024-03-08T03:40:38;3.15;;;2.45;;
66478;SDS011;53294;47.912;13.526;2024-03-08T03:43:06;6.65;;;1.70;;
66478;SDS011;53294;47.912;13.526;2024-03-08T03:45:34;4.00;;;1.52;;
66478;SDS011;53294;47.912;13.526;2024-03-08T03:48:04;3.70;;;1.50;;
66478;SDS011;53294;47.912;13.526;2024-03-08T03:50:33;5.53;;;3.17;;
66478;SDS011;53294;47.912;13.526;2024-03-08T03:53:02;3.17;;;2.15;;
66478;SDS011;53294;47.912;13.526;2024-03-08T03:57:56;8.52;;;1.55;;
66478;SDS011;53294;47.912;13.526;2024-03-08T04:00:25;3.53;;;2.65;;
66478;SDS011;53294;47.912;13.526;2024-03-08T04:02:53;2.22;;;1.55;;
66478;SDS011;53294;47.912;13.526;2024-03-08T04:07:48;2.42;;;2.17;;
66478;SDS011;53294;47.912;13.526;2024-03-08T04:10:14;4.13;;;1.10;;
66478;SDS011;53294;47.912;13.526;2024-03-08T04:12:41;4.07;;;1.70;;
66478;SDS011;53294;47.912;13.526;2024-03-08T04:15:08;1.92;;;1.13;;
66478;SDS011;53294;47.912;13.526;2024-03-08T04:17:37;5.05;;;2.10;;
66478;SDS011;53294;47.912;13.526;2024-03-08T04:20:05;5.25;;;2.33;;
66478;SDS011;53294;47.912;13.526;2024-03-08T04:22:37;2.03;;;1.52;;
66478;SDS011;53294;47.912;13.526;2024-03-08T04:25:04;2.60;;;1.17;;
66478;SDS011;53294;47.912;13.526;2024-03-08T04:27:32;1.40;;;0.95;;
66478;SDS011;53294;47.912;13.526;2024-03-08T04:32:27;4.47;;;1.83;;
66478;SDS011;53294;47.912;13.526;2024-03-08T04:34:56;6.43;;;1.30;;
66478;SDS011;53294;47.912;13.526;2024-03-08T04:37:23;4.63;;;1.73;;
66478;SDS011;53294;47.912;13.526;2024-03-08T04:39:51;1.80;;;1.30;;
66478;SDS011;53294;47.912;13.526;2024-03-08T04:42:18;1.42;;;1.25;;
66478;SDS011;53294;47.912;13.526;2024-03-08T04:44:45;11.73;;;3.05;;
66478;SDS011;53294;47.912;13.526;2024-03-08T04:47:12;6.82;;;3.00;;
66478;SDS011;53294;47.912;13.526;2024-03-08T04:49:39;3.10;;;1.38;;
66478;SDS011;53294;47.912;13.526;2024-03-08T04:52:05;6.22;;;1.70;;
66478;SDS011;53294;47.912;13.526;2024-03-08T04:57:00;2.72;;;2.40;;
66478;SDS011;53294;47.912;13.526;2024-03-08T04:59:32;5.38;;;1.52;;
66478;SDS011;53294;47.912;13.526;2024-03-08T05:01:59;3.88;;;2.53;;
66478;SDS011;53294;47.912;13.526;2024-03-08T05:04:26;3.05;;;1.77;;
66478;SDS011;53294;47.912;13.526;2024-03-08T05:06:52;7.80;;;2.78;;
66478;SDS011;53294;47.912;13.526;2024-03-08T05:09:20;8.32;;;3.85;;
66478;SDS011;53294;47.912;13.526;2024-03-08T05:11:47;12.18;;;2.58;;
66478;SDS011;53294;47.912;13.526;2024-03-08T05:14:14;7.82;;;3.40;;
66478;SDS011;53294;47.912;13.526;2024-03-08T05:16:46;8.85;;;3.80;;
66478;SDS011;53294;47.912;13.526;2024-03-08T05:19:17;4.65;;;2.92;;
66478;SDS011;53294;47.912;13.526;2024-03-08T05:21:45;6.30;;;3.65;;
66478;SDS011;53294;47.912;13.526;2024-03-08T05:24:15;8.82;;;4.20;;
66478;SDS011;53294;47.912;13.526;2024-03-08T05:26:44;14.27;;;3.28;;
66478;SDS011;53294;47.912;13.526;2024-03-08T05:29:11;4.70;;;2.75;;
66478;SDS011;53294;47.912;13.526;2024-03-08T05:34:18;5.05;;;2.95;;
66478;SDS011;53294;47.912;13.526;2024-03-08T05:36:49;7.80;;;3.53;;
66478;SDS011;53294;47.912;13.526;2024-03-08T05:39:17;4.70;;;1.50;;
66478;SDS011;53294;47.912;13.526;2024-03-08T05:41:46;4.80;;;2.40;;
66478;SDS011;53294;47.912;13.526;2024-03-08T05:44:14;4.78;;;2.28;;
66478;SDS011;53294;47.912;13.526;2024-03-08T05:46:41;7.80;;;2.38;;
66478;SDS011;53294;47.912;13.526;2024-03-08T05:49:07;5.75;;;3.10;;
66478;SDS011;53294;47.912;13.526;2024-03-08T05:51:37;4.65;;;2.92;;
66478;SDS011;53294;47.912;13.526;2024-03-08T05:54:09;7.30;;;2.33;;
66478;SDS011;53294;47.912;13.526;2024-03-08T05:56:38;7.35;;;3.17;;
66478;SDS011;53294;47.912;13.526;2024-03-08T05:59:08;5.03;;;2.53;;
66478;SDS011;53294;47.912;13.526;2024-03-08T06:01:36;5.28;;;2.97;;
66478;SDS011;53294;47.912;13.526;2024-03-08T06:04:03;4.75;;;1.63;;
66478;SDS011;53294;47.912;13.526;2024-03-08T06:06:30;9.25;;;3.25;;
66478;SDS011;53294;47.912;13.526;2024-03-08T06:08:57;5.30;;;1.83;;
66478;SDS011;53294;47.912;13.526;2024-03-08T06:11:25;8.45;;;3.25;;
66478;SDS011;53294;47.912;13.526;2024-03-08T06:13:57;10.55;;;3.90;;
66478;SDS011;53294;47.912;13.526;2024-03-08T06:16:26;7.63;;;3.20;;
66478;SDS011;53294;47.912;13.526;2024-03-08T06:18:56;5.30;;;2.28;;
66478;SDS011;53294;47.912;13.526;2024-03-08T06:21:24;9.57;;;3.72;;
66478;SDS011;53294;47.912;13.526;2024-03-08T06:23:55;8.90;;;4.40;;
66478;SDS011;53294;47.912;13.526;2024-03-08T06:26:24;5.97;;;3.67;;
66478;SDS011;53294;47.912;13.526;2024-03-08T06:28:55;6.18;;;2.83;;
66478;SDS011;53294;47.912;13.526;2024-03-08T06:31:23;2.45;;;2.08;;
66478;SDS011;53294;47.912;13.526;2024-03-08T06:33:50;8.07;;;2.88;;
66478;SDS011;53294;47.912;13.526;2024-03-08T06:36:18;7.30;;;2.20;;
66478;SDS011;53294;47.912;13.526;2024-03-08T06:38:48;5.35;;;2.65;;
66478;SDS011;53294;47.912;13.526;2024-03-08T06:41:15;5.35;;;2.80;;
66478;SDS011;53294;47.912;13.526;2024-03-08T06:43:43;8.07;;;3.38;;
66478;SDS011;53294;47.912;13.526;2024-03-08T06:48:39;8.20;;;3.95;;
66478;SDS011;53294;47.912;13.526;2024-03-08T06:51:06;10.32;;;2.22;;
66478;SDS011;53294;47.912;13.526;2024-03-08T06:53:33;6.15;;;3.28;;
66478;SDS011;53294;47.912;13.526;2024-03-08T06:56:05;8.85;;;3.05;;
66478;SDS011;53294;47.912;13.526;2024-03-08T06:58:33;11.77;;;2.83;;
66478;SDS011;53294;47.912;13.526;2024-03-08T07:01:00;11.10;;;3.33;;
66478;SDS011;53294;47.912;13.526;2024-03-08T07:03:30;5.22;;;2.90;;
66478;SDS011;53294;47.912;13.526;2024-03-08T07:05:59;7.75;;;2.58;;
66478;SDS011;53294;47.912;13.526;2024-03-08T07:08:28;9.70;;;3.55;;
66478;SDS011;53294;47.912;13.526;2024-03-08T07:10:55;8.32;;;3.80;;
66478;SDS011;53294;47.912;13.526;2024-03-08T07:13:22;8.60;;;3.50;;
66478;SDS011;53294;47.912;13.526;2024-03-08T07:15:48;6.38;;;2.08;;
66478;SDS011;53294;47.912;13.526;2024-03-08T07:18:15;6.15;;;3.05;;
66478;SDS011;53294;47.912;13.526;2024-03-08T07:20:42;11.57;;;4.38;;
66478;SDS011;53294;47.912;13.526;2024-03-08T07:23:10;6.28;;;2.33;;
66478;SDS011;53294;47.912;13.526;2024-03-08T07:25:37;8.27;;;4.93;;
66478;SDS011;53294;47.912;13.526;2024-03-08T07:28:05;8.52;;;3.72;;
66478;SDS011;53294;47.912;13.526;2024-03-08T07:30:37;5.03;;;2.25;;
66478;SDS011;53294;47.912;13.526;2024-03-08T07:33:11;11.68;;;4.90;;
66478;SDS011;53294;47.912;13.526;2024-03-08T07:35:39;7.47;;;2.40;;
66478;SDS011;53294;47.912;13.526;2024-03-08T07:38:07;11.60;;;4.40;;
66478;SDS011;53294;47.912;13.526;2024-03-08T07:40:37;11.57;;;4.15;;
66478;SDS011;53294;47.912;13.526;2024-03-08T07:43:11;12.20;;;3.67;;
66478;SDS011;53294;47.912;13.526;2024-03-08T07:45:38;13.45;;;4.97;;
66478;SDS011;53294;47.912;13.526;2024-03-08T07:48:05;11.07;;;3.90;;
66478;SDS011;53294;47.912;13.526;2024-03-08T07:50:40;17.45;;;4.10;;
66478;SDS011;53294;47.912;13.526;2024-03-08T07:53:07;11.20;;;4.03;;
66478;SDS011;53294;47.912;13.526;2024-03-08T07:55:35;11.95;;;3.80;;
66478;SDS011;53294;47.912;13.526;2024-03-08T07:58:02;13.52;;;4.65;;
66478;SDS011;53294;47.912;13.526;2024-03-08T08:00:30;8.38;;;3.85;;
66478;SDS011;53294;47.912;13.526;2024-03-08T08:02:58;14.05;;;4.68;;
66478;SDS011;53294;47.912;13.526;2024-03-08T08:05:25;9.32;;;3.63;;
66478;SDS011;53294;47.912;13.526;2024-03-08T08:07:52;13.63;;;5.10;;
66478;SDS011;53294;47.912;13.526;2024-03-08T08:12:52;8.85;;;3.35;;
66478;SDS011;53294;47.912;13.526;2024-03-08T08:15:19;12.18;;;4.15;;
66478;SDS011;53294;47.912;13.526;2024-03-08T08:20:14;11.55;;;4.22;;
66478;SDS011;53294;47.912;13.526;2024-03-08T08:22:41;12.98;;;5.05;;
66478;SDS011;53294;47.912;13.526;2024-03-08T08:25:11;6.85;;;3.63;;
66478;SDS011;53294;47.912;13.526;2024-03-08T08:27:42;11.18;;;3.42;;
66478;SDS011;53294;47.912;13.526;2024-03-08T08:30:09;10.07;;;4.85;;
66478;SDS011;53294;47.912;13.526;2024-03-08T08:32:38;8.68;;;4.07;;
66478;SDS011;53294;47.912;13.526;2024-03-08T08:35:15;12.13;;;3.85;;
66478;SDS011;53294;47.912;13.526;2024-03-08T08:37:42;11.63;;;5.13;;
66478;SDS011;53294;47.912;13.526;2024-03-08T08:40:10;11.77;;;4.40;;
66478;SDS011;53294;47.912;13.526;2024-03-08T08:42:42;15.90;;;5.15;;
66478;SDS011;53294;47.912;13.526;2024-03-08T08:47:43;14.40;;;4.25;;
66478;SDS011;53294;47.912;13.526;2024-03-08T08:50:12;13.05;;;4.63;;
66478;SDS011;53294;47.912;13.526;2024-03-08T08:55:07;13.80;;;4.90;;
66478;SDS011;53294;47.912;13.526;2024-03-08T09:00:02;12.40;;;4.03;;
66478;SDS011;53294;47.912;13.526;2024-03-08T09:02:34;10.95;;;5.57;;
66478;SDS011;53294;47.912;13.526;2024-03-08T09:05:01;12.90;;;4.72;;
66478;SDS011;53294;47.912;13.526;2024-03-08T09:07:28;13.40;;;5.15;;
66478;SDS011;53294;47.912;13.526;2024-03-08T09:09:56;10.60;;;5.18;;
66478;SDS011;53294;47.912;13.526;2024-03-08T09:12:25;13.63;;;5.30;;
66478;SDS011;53294;47.912;13.526;2024-03-08T09:14:52;12.45;;;4.80;;
66478;SDS011;53294;47.912;13.526;2024-03-08T09:17:19;11.35;;;4.68;;
66478;SDS011;53294;47.912;13.526;2024-03-08T09:19:49;16.40;;;5.35;;
66478;SDS011;53294;47.912;13.526;2024-03-08T09:22:16;15.48;;;5.45;;
66478;SDS011;53294;47.912;13.526;2024-03-08T09:24:44;14.23;;;5.57;;
66478;SDS011;53294;47.912;13.526;2024-03-08T09:27:12;13.75;;;5.35;;
66478;SDS011;53294;47.912;13.526;2024-03-08T09:29:40;13.50;;;5.75;;
66478;SDS011;53294;47.912;13.526;2024-03-08T09:32:07;12.95;;;5.25;;
66478;SDS011;53294;47.912;13.526;2024-03-08T09:34:33;14.27;;;5.35;;
66478;SDS011;53294;47.912;13.526;2024-03-08T09:37:03;13.95;;;5.32;;
66478;SDS011;53294;47.912;13.526;2024-03-08T09:42:00;16.58;;;6.05;;
66478;SDS011;53294;47.912;13.526;2024-03-08T09:44:28;15.43;;;5.65;;
66478;SDS011;53294;47.912;13.526;2024-03-08T09:46:58;17.52;;;5.13;;
66478;SDS011;53294;47.912;13.526;2024-03-08T09:49:26;15.10;;;6.05;;
66478;SDS011;53294;47.912;13.526;2024-03-08T09:51:53;14.15;;;5.35;;
66478;SDS011;53294;47.912;13.526;2024-03-08T09:54:20;16.60;;;6.00;;
66478;SDS011;53294;47.912;13.526;2024-03-08T09:56:51;16.00;;;5.95;;
66478;SDS011;53294;47.912;13.526;2024-03-08T09:59:18;12.63;;;5.22;;
66478;SDS011;53294;47.912;13.526;2024-03-08T10:01:54;16.23;;;5.15;;
66478;SDS011;53294;47.912;13.526;2024-03-08T10:04:26;15.55;;;5.35;;
66478;SDS011;53294;47.912;13.526;2024-03-08T10:06:55;18.80;;;6.60;;
66478;SDS011;53294;47.912;13.526;2024-03-08T10:09:23;15.45;;;5.70;;
66478;SDS011;53294;47.912;13.526;2024-03-08T10:11:53;19.00;;;6.53;;
66478;SDS011;53294;47.912;13.526;2024-03-08T10:14:22;13.55;;;5.57;;
66478;SDS011;53294;47.912;13.526;2024-03-08T10:16:49;13.48;;;6.07;;
66478;SDS011;53294;47.912;13.526;2024-03-08T10:19:15;15.05;;;4.50;;
66478;SDS011;53294;47.912;13.526;2024-03-08T10:21:49;15.68;;;5.82;;
66478;SDS011;53294;47.912;13.526;2024-03-08T10:24:18;12.25;;;4.22;;
66478;SDS011;53294;47.912;13.526;2024-03-08T10:26:45;12.82;;;5.03;;
66478;SDS011;53294;47.912;13.526;2024-03-08T10:29:12;13.93;;;5.18;;
66478;SDS011;53294;47.912;13.526;2024-03-08T10:31:45;11.85;;;4.85;;
66478;SDS011;53294;47.912;13.526;2024-03-08T10:34:12;13.55;;;5.88;;
66478;SDS011;53294;47.912;13.526;2024-03-08T10:36:39;15.27;;;5.68;;
66478;SDS011;53294;47.912;13.526;2024-03-08T10:39:12;11.02;;;4.78;;
66478;SDS011;53294;47.912;13.526;2024-03-08T10:41:52;13.93;;;4.75;;
66478;SDS011;53294;47.912;13.526;2024-03-08T10:52:30;15.30;;;5.68;;
66478;SDS011;53294;47.912;13.526;2024-03-08T10:54:58;15.38;;;5.78;;
66478;SDS011;53294;47.912;13.526;2024-03-08T10:57:25;15.85;;;4.78;;
66478;SDS011;53294;47.912;13.526;2024-03-08T10:59:53;14.50;;;5.53;;
66478;SDS011;53294;47.912;13.526;2024-03-08T11:02:25;12.07;;;5.30;;
66478;SDS011;53294;47.912;13.526;2024-03-08T11:04:53;17.58;;;5.80;;
66478;SDS011;53294;47.912;13.526;2024-03-08T11:07:23;10.65;;;4.43;;
66478;SDS011;53294;47.912;13.526;2024-03-08T11:09:54;16.65;;;6.38;;
66478;SDS011;53294;47.912;13.526;2024-03-08T11:12:28;11.55;;;6.07;;
66478;SDS011;53294;47.912;13.526;2024-03-08T11:14:57;12.90;;;5.90;;
66478;SDS011;53294;47.912;13.526;2024-03-08T11:19:57;16.42;;;5.70;;
66478;SDS011;53294;47.912;13.526;2024-03-08T11:22:32;13.25;;;5.45;;
66478;SDS011;53294;47.912;13.526;2024-03-08T11:25:03;16.63;;;5.75;;
66478;SDS011;53294;47.912;13.526;2024-03-08T11:27:36;12.10;;;5.38;;
66478;SDS011;53294;47.912;13.526;2024-03-08T11:30:04;15.70;;;5.45;;
66478;SDS011;53294;47.912;13.526;2024-03-08T11:32:46;12.02;;;5.22;;
66478;SDS011;53294;47.912;13.526;2024-03-08T11:35:18;12.13;;;4.97;;
66478;SDS011;53294;47.912;13.526;2024-03-08T11:37:47;15.50;;;6.22;;
66478;SDS011;53294;47.912;13.526;2024-03-08T11:40:14;14.13;;;5.70;;
66478;SDS011;53294;47.912;13.526;2024-03-08T11:42:46;14.38;;;5.60;;
66478;SDS011;53294;47.912;13.526;2024-03-08T11:45:15;17.25;;;6.53;;
66478;SDS011;53294;47.912;13.526;2024-03-08T11:47:44;14.65;;;5.88;;
66478;SDS011;53294;47.912;13.526;2024-03-08T11:50:16;14.05;;;6.05;;
66478;SDS011;53294;47.912;13.526;2024-03-08T11:52:45;13.52;;;5.60;;
66478;SDS011;53294;47.912;13.526;2024-03-08T11:55:13;16.05;;;5.78;;
66478;SDS011;53294;47.912;13.526;2024-03-08T11:57:40;10.82;;;4.85;;
66478;SDS011;53294;47.912;13.526;2024-03-08T12:00:14;18.02;;;5.85;;
66478;SDS011;53294;47.912;13.526;2024-03-08T12:03:10;14.73;;;5.85;;
66478;SDS011;53294;47.912;13.526;2024-03-08T12:05:37;14.57;;;5.43;;
66478;SDS011;53294;47.912;13.526;2024-03-08T12:08:04;12.80;;;5.47;;
66478;SDS011;53294;47.912;13.526;2024-03-08T12:10:33;14.88;;;5.90;;
66478;SDS011;53294;47.912;13.526;2024-03-08T12:13:01;13.68;;;5.47;;
66478;SDS011;53294;47.912;13.526;2024-03-08T12:15:37;17.08;;;6.13;;
66478;SDS011;53294;47.912;13.526;2024-03-08T12:18:05;16.58;;;5.95;;
66478;SDS011;53294;47.912;13.526;2024-03-08T12:20:33;13.07;;;5.70;;
66478;SDS011;53294;47.912;13.526;2024-03-08T12:23:00;14.98;;;5.32;;
66478;SDS011;53294;47.912;13.526;2024-03-08T12:25:32;14.80;;;6.28;;
66478;SDS011;53294;47.912;13.526;2024-03-08T12:30:49;14.73;;;5.93;;
66478;SDS011;53294;47.912;13.526;2024-03-08T12:33:19;10.30;;;4.82;;
66478;SDS011;53294;47.912;13.526;2024-03-08T12:35:52;17.27;;;5.15;;
66478;SDS011;53294;47.912;13.526;2024-03-08T12:38:21;11.50;;;4.80;;
66478;SDS011;53294;47.912;13.526;2024-03-08T12:40:57;16.35;;;6.00;;
66478;SDS011;53294;47.912;13.526;2024-03-08T12:43:25;14.65;;;5.93;;
66478;SDS011;53294;47.912;13.526;2024-03-08T12:45:52;14.93;;;5.72;;
66478;SDS011;53294;47.912;13.526;2024-03-08T12:48:21;13.23;;;5.32;;
66478;SDS011;53294;47.912;13.526;2024-03-08T12:50:47;16.17;;;5.97;;
66478;SDS011;53294;47.912;13.526;2024-03-08T12:53:14;12.68;;;5.15;;
66478;SDS011;53294;47.912;13.526;2024-03-08T12:58:08;11.75;;;5.15;;
66478;SDS011;53294;47.912;13.526;2024-03-08T13:00:35;12.80;;;5.00;;
66478;SDS011;53294;47.912;13.526;2024-03-08T13:03:03;12.63;;;5.25;;
66478;SDS011;53294;47.912;13.526;2024-03-08T13:07:56;10.98;;;4.93;;
66478;SDS011;53294;47.912;13.526;2024-03-08T13:10:24;11.95;;;5.10;;
66478;SDS011;53294;47.912;13.526;2024-03-08T13:12:50;11.90;;;4.90;;
66478;SDS011;53294;47.912;13.526;2024-03-08T13:15:20;15.10;;;5.20;;
66478;SDS011;53294;47.912;13.526;2024-03-08T13:17:47;14.68;;;4.95;;
66478;SDS011;53294;47.912;13.526;2024-03-08T13:20:15;15.73;;;5.40;;
66478;SDS011;53294;47.912;13.526;2024-03-08T13:22:56;12.60;;;5.13;;
66478;SDS011;53294;47.912;13.526;2024-03-08T13:25:25;13.82;;;4.38;;
66478;SDS011;53294;47.912;13.526;2024-03-08T13:30:22;13.35;;;4.90;;
66478;SDS011;53294;47.912;13.526;2024-03-08T13:32:51;13.65;;;5.63;;
66478;SDS011;53294;47.912;13.526;2024-03-08T13:35:21;13.63;;;5.15;;
66478;SDS011;53294;47.912;13.526;2024-03-08T13:37:51;11.18;;;4.35;;
66478;SDS011;53294;47.912;13.526;2024-03-08T13:40:18;9.68;;;4.63;;
66478;SDS011;53294;47.912;13.526;2024-03-08T13:42:47;13.05;;;5.15;;
66478;SDS011;53294;47.912;13.526;2024-03-08T13:45:15;12.15;;;4.97;;
66478;SDS011;53294;47.912;13.526;2024-03-08T13:47:50;13.10;;;4.93;;
66478;SDS011;53294;47.912;13.526;2024-03-08T13:50:21;10.55;;;4.28;;
66478;SDS011;53294;47.912;13.526;2024-03-08T13:52:49;11.65;;;4.78;;
66478;SDS011;53294;47.912;13.526;2024-03-08T13:55:22;12.15;;;4.53;;
66478;SDS011;53294;47.912;13.526;2024-03-08T13:57:52;10.10;;;4.57;;
66478;SDS011;53294;47.912;13.526;2024-03-08T14:00:19;11.35;;;4.30;;
66478;SDS011;53294;47.912;13.526;2024-03-08T14:02:49;11.55;;;4.80;;
66478;SDS011;53294;47.912;13.526;2024-03-08T14:05:16;15.48;;;5.15;;
66478;SDS011;53294;47.912;13.526;2024-03-08T14:07:45;11.65;;;4.72;;
66478;SDS011;53294;47.912;13.526;2024-03-08T14:10:16;9.82;;;4.30;;
66478;SDS011;53294;47.912;13.526;2024-03-08T14:12:47;12.88;;;4.88;;
66478;SDS011;53294;47.912;13.526;2024-03-08T14:15:17;9.75;;;4.38;;
66478;SDS011;53294;47.912;13.526;2024-03-08T14:17:43;11.57;;;4.32;;
66478;SDS011;53294;47.912;13.526;2024-03-08T14:20:12;12.25;;;4.10;;
66478;SDS011;53294;47.912;13.526;2024-03-08T14:22:39;12.82;;;4.88;;
66478;SDS011;53294;47.912;13.526;2024-03-08T14:25:06;13.48;;;4.97;;
66478;SDS011;53294;47.912;13.526;2024-03-08T14:27:35;14.25;;;4.97;;
66478;SDS011;53294;47.912;13.526;2024-03-08T14:30:02;11.95;;;4.43;;
66478;SDS011;53294;47.912;13.526;2024-03-08T14:32:29;14.35;;;4.40;;
66478;SDS011;53294;47.912;13.526;2024-03-08T14:34:56;11.23;;;5.05;;
66478;SDS011;53294;47.912;13.526;2024-03-08T14:37:23;11.23;;;4.90;;
66478;SDS011;53294;47.912;13.526;2024-03-08T14:39:54;11.88;;;4.45;;
66478;SDS011;53294;47.912;13.526;2024-03-08T14:42:22;11.43;;;4.55;;
66478;SDS011;53294;47.912;13.526;2024-03-08T14:44:49;11.25;;;4.85;;
66478;SDS011;53294;47.912;13.526;2024-03-08T14:47:20;9.35;;;4.15;;
66478;SDS011;53294;47.912;13.526;2024-03-08T14:49:48;7.43;;;3.17;;
66478;SDS011;53294;47.912;13.526;2024-03-08T14:54:54;11.32;;;4.25;;
66478;SDS011;53294;47.912;13.526;2024-03-08T14:57:22;9.52;;;3.88;;
66478;SDS011;53294;47.912;13.526;2024-03-08T14:59:49;10.00;;;4.07;;
66478;SDS011;53294;47.912;13.526;2024-03-08T15:02:16;11.57;;;4.05;;
66478;SDS011;53294;47.912;13.526;2024-03-08T15:04:48;13.48;;;4.60;;
66478;SDS011;53294;47.912;13.526;2024-03-08T15:07:24;11.68;;;4.07;;
66478;SDS011;53294;47.912;13.526;2024-03-08T15:09:57;11.23;;;4.60;;
66478;SDS011;53294;47.912;13.526;2024-03-08T15:12:24;9.75;;;4.43;;
66478;SDS011;53294;47.912;13.526;2024-03-08T15:14:52;8.77;;;4.03;;
66478;SDS011;53294;47.912;13.526;2024-03-08T15:17:22;9.00;;;3.85;;
66478;SDS011;53294;47.912;13.526;2024-03-08T15:19:49;13.63;;;3.55;;
66478;SDS011;53294;47.912;13.526;2024-03-08T15:24:44;10.35;;;4.07;;
66478;SDS011;53294;47.912;13.526;2024-03-08T15:27:11;11.25;;;4.28;;
66478;SDS011;53294;47.912;13.526;2024-03-08T15:32:05;8.77;;;3.72;;
66478;SDS011;53294;47.912;13.526;2024-03-08T15:34:33;10.88;;;3.90;;
66478;SDS011;53294;47.912;13.526;2024-03-08T15:37:04;11.45;;;4.25;;